createdAt,value
2022-12-19T00:04:32.765Z,15.15
2022-12-19T00:09:31.540Z,14.63
2022-12-19T00:14:31.930Z,15.05
2022-12-19T00:19:32.223Z,16.73
2022-12-19T00:24:31.046Z,17.05
2022-12-19T00:29:29.825Z,15.73
2022-12-19T00:34:28.699Z,15.90
2022-12-19T00:39:28.926Z,17.08
2022-12-19T00:44:27.686Z,17.02
2022-12-19T00:49:26.412Z,15.90
2022-12-19T00:54:25.356Z,17.25
2022-12-19T00:59:26.746Z,16.90
2022-12-19T01:04:29.394Z,17.38
2022-12-19T01:09:28.803Z,17.40
2022-12-19T01:14:28.968Z,14.27
2022-12-19T01:19:28.592Z,15.23
2022-12-19T01:24:27.474Z,15.18
2022-12-19T01:29:26.313Z,14.07
2022-12-19T01:34:27.701Z,18.13
2022-12-19T01:39:27.547Z,17.43
2022-12-19T01:44:29.170Z,17.17
2022-12-19T01:49:32.631Z,15.97
2022-12-19T01:54:35.646Z,18.13
2022-12-19T01:59:38.935Z,17.17
2022-12-19T02:04:42.640Z,17.92
2022-12-19T02:09:41.573Z,16.00
2022-12-19T02:14:40.941Z,17.37
2022-12-19T02:20:19.407Z,17.60
2022-12-19T02:25:56.905Z,13.93
2022-12-19T02:31:16.468Z,19.50
2022-12-19T02:36:20.693Z,17.40
2022-12-19T02:41:25.927Z,17.33
2022-12-19T02:46:26.738Z,16.23
2022-12-19T02:51:26.334Z,17.27
2022-12-19T02:56:39.548Z,17.03
2022-12-19T03:01:50.103Z,16.23
2022-12-19T03:06:55.079Z,16.03
2022-12-19T03:12:02.849Z,18.07
2022-12-19T03:17:07.126Z,17.03
2022-12-19T03:22:06.381Z,17.07
2022-12-19T03:27:10.011Z,16.33
2022-12-19T03:32:17.519Z,17.05
2022-12-19T03:37:19.323Z,15.93
2022-12-19T03:42:37.290Z,18.10
2022-12-19T03:47:41.614Z,15.33
2022-12-19T03:52:45.404Z,14.13
2022-12-19T04:02:49.071Z,16.07
2022-12-19T04:07:50.117Z,19.55
2022-12-19T04:12:54.504Z,16.87
2022-12-19T04:17:58.684Z,16.27
2022-12-19T04:23:02.465Z,16.13
2022-12-19T04:28:06.159Z,14.77
2022-12-19T04:33:06.530Z,17.08
2022-12-19T04:38:07.759Z,15.53
2022-12-19T04:43:08.481Z,15.07
2022-12-19T04:48:09.000Z,15.17
2022-12-19T04:53:07.970Z,16.80
2022-12-19T04:58:08.230Z,18.00
2022-12-19T05:03:08.718Z,18.23
2022-12-19T05:08:07.898Z,15.87
2022-12-19T05:13:06.828Z,18.33
2022-12-19T05:18:05.948Z,15.63
2022-12-19T05:23:11.389Z,15.70
2022-12-19T05:28:15.818Z,16.53
2022-12-19T05:33:14.647Z,14.60
2022-12-19T05:38:15.091Z,15.03
2022-12-19T05:43:13.960Z,14.80
2022-12-19T05:48:13.765Z,14.80
2022-12-19T05:53:14.095Z,15.50
2022-12-19T05:58:13.340Z,16.63
2022-12-19T06:03:12.209Z,17.57
2022-12-19T06:08:11.408Z,17.63
2022-12-19T06:13:11.608Z,16.10
2022-12-19T06:18:10.445Z,16.13
2022-12-19T06:23:10.603Z,18.47
2022-12-19T06:28:11.153Z,14.83
2022-12-19T06:33:10.173Z,14.80
2022-12-19T06:38:09.285Z,18.13
2022-12-19T06:43:08.290Z,15.83
2022-12-19T06:48:08.680Z,14.43
2022-12-19T06:53:07.543Z,15.10
2022-12-19T06:58:06.760Z,15.10
2022-12-19T07:03:09.109Z,12.60
2022-12-19T07:08:09.700Z,14.00
2022-12-19T07:13:08.497Z,14.50
2022-12-19T07:18:09.556Z,14.83
2022-12-19T07:23:12.322Z,15.87
2022-12-19T07:28:13.185Z,15.40
2022-12-19T07:33:15.630Z,16.40
2022-12-19T07:38:18.547Z,14.70
2022-12-19T07:43:17.406Z,16.37
2022-12-19T07:48:16.166Z,15.07
2022-12-19T07:53:15.013Z,16.90
2022-12-19T07:58:18.297Z,14.60
2022-12-19T08:03:17.040Z,13.27
2022-12-19T08:08:16.032Z,14.77
2022-12-19T08:13:14.814Z,14.07
2022-12-19T08:18:15.085Z,15.53
2022-12-19T08:23:27.181Z,14.97
2022-12-19T08:28:26.008Z,15.33
2022-12-19T08:33:27.277Z,14.17
2022-12-19T08:38:30.018Z,16.23
2022-12-19T08:43:32.505Z,14.60
2022-12-19T08:48:33.515Z,14.37
2022-12-19T08:53:35.387Z,13.03
2022-12-19T08:58:34.235Z,14.87
2022-12-19T09:03:38.274Z,13.93
2022-12-19T09:08:53.888Z,14.83
2022-12-19T09:13:59.991Z,17.47
2022-12-19T09:19:00.298Z,14.90
2022-12-19T09:24:08.093Z,14.67
2022-12-19T09:29:19.897Z,15.93
2022-12-19T09:34:36.167Z,17.10
2022-12-19T09:39:37.766Z,18.13
2022-12-19T09:44:52.298Z,14.10
2022-12-19T09:49:55.295Z,14.73
2022-12-19T09:54:58.764Z,13.52
2022-12-19T10:00:02.091Z,16.73
2022-12-19T10:05:40.557Z,15.25
2022-12-19T10:12:40.544Z,13.82
2022-12-19T10:16:22.600Z,14.32
2022-12-19T10:22:07.544Z,14.30
2022-12-19T10:26:53.669Z,13.77
2022-12-19T10:31:59.862Z,15.45
2022-12-19T10:37:27.131Z,14.50
2022-12-19T10:42:33.880Z,14.18
2022-12-19T10:47:33.190Z,14.93
2022-12-19T10:53:07.510Z,14.77
2022-12-19T10:58:24.246Z,15.13
2022-12-19T11:03:26.334Z,14.75
2022-12-19T11:08:28.723Z,16.08
2022-12-19T11:17:44.427Z,14.43
2022-12-19T11:24:34.965Z,14.40
2022-12-19T11:29:34.560Z,17.60
2022-12-19T11:35:17.478Z,16.73
2022-12-19T11:40:28.158Z,15.40
2022-12-19T11:45:36.049Z,16.27
2022-12-19T11:50:40.392Z,17.42
2022-12-19T11:55:45.569Z,16.38
2022-12-19T12:00:52.705Z,15.93
2022-12-19T12:05:55.439Z,17.15
2022-12-19T12:16:04.272Z,17.07
2022-12-19T12:31:08.392Z,16.17
2022-12-19T12:31:21.673Z,16.77
2022-12-19T12:31:43.768Z,15.07
2022-12-19T12:35:31.716Z,15.95
2022-12-19T12:44:09.511Z,15.00
2022-12-19T12:49:24.362Z,15.00
2022-12-19T12:54:32.408Z,18.10
2022-12-19T12:59:33.429Z,16.67
2022-12-19T13:04:35.045Z,14.02
2022-12-19T13:09:47.659Z,16.23
2022-12-19T13:14:54.329Z,14.13
2022-12-19T13:20:16.042Z,14.98
2022-12-19T13:25:52.672Z,16.13
2022-12-19T13:31:21.153Z,14.27
2022-12-19T13:39:54.618Z,15.48
2022-12-19T13:44:24.418Z,14.57
2022-12-19T13:48:36.393Z,16.40
2022-12-19T13:53:36.098Z,17.08
2022-12-19T13:58:45.970Z,16.40
2022-12-19T14:03:53.050Z,15.52
2022-12-19T14:10:19.927Z,17.40
2022-12-19T14:14:35.608Z,16.73
2022-12-19T14:19:41.528Z,13.60
2022-12-19T14:24:44.538Z,15.07
2022-12-19T14:30:30.485Z,15.18
2022-12-19T14:36:07.679Z,15.20
2022-12-19T14:43:14.869Z,16.27
2022-12-19T14:52:36.051Z,15.68
2022-12-19T14:54:28.081Z,17.85
2022-12-19T14:58:54.599Z,16.23
2022-12-19T15:04:50.456Z,17.05
2022-12-19T15:11:05.358Z,18.38
2022-12-19T15:15:44.107Z,19.75
2022-12-19T15:20:53.491Z,18.67
2022-12-19T15:26:04.693Z,19.92
2022-12-19T15:31:11.698Z,21.42
2022-12-19T15:36:11.149Z,21.50
2022-12-19T15:41:15.424Z,20.77
2022-12-19T15:46:15.308Z,21.93
2022-12-19T15:51:14.847Z,20.53
2022-12-19T15:56:28.476Z,22.47
2022-12-19T16:01:27.869Z,19.75
2022-12-19T16:06:27.236Z,20.07
2022-12-19T16:11:27.624Z,20.33
2022-12-19T16:16:26.575Z,19.70
2022-12-19T16:21:33.675Z,19.63
2022-12-19T16:26:37.168Z,20.77
2022-12-19T16:31:36.073Z,21.87
2022-12-19T16:36:34.913Z,20.30
2022-12-19T16:41:41.753Z,19.43
2022-12-19T16:46:46.962Z,21.00
2022-12-19T16:51:49.104Z,22.27
2022-12-19T16:56:57.934Z,19.07
2022-12-19T17:01:57.976Z,19.63
2022-12-19T17:06:57.473Z,19.73
2022-12-19T17:12:00.259Z,18.47
2022-12-19T17:17:00.705Z,20.90
2022-12-19T17:21:59.547Z,19.07
2022-12-19T17:26:59.627Z,19.80
2022-12-19T17:31:58.520Z,19.20
2022-12-19T17:36:58.717Z,21.43
2022-12-19T17:42:01.963Z,20.10
2022-12-19T17:47:00.792Z,19.13
2022-12-19T17:52:02.639Z,21.10
2022-12-19T17:57:03.337Z,21.93
2022-12-19T18:02:02.605Z,22.97
2022-12-19T18:07:02.783Z,21.97
2022-12-19T18:12:03.021Z,22.10
2022-12-19T18:17:02.834Z,19.73
2022-12-19T18:22:01.665Z,21.27
2022-12-19T18:27:00.617Z,20.60
2022-12-19T18:32:00.961Z,20.07
2022-12-19T18:36:59.964Z,21.73
2022-12-19T18:41:58.956Z,21.87
2022-12-19T18:46:57.928Z,18.17
2022-12-19T18:51:58.067Z,18.47
2022-12-19T18:56:57.534Z,18.83
2022-12-19T19:01:56.749Z,17.50
2022-12-19T19:06:55.928Z,17.07
2022-12-19T19:11:59.446Z,17.53
2022-12-19T19:17:01.812Z,16.83
2022-12-19T19:22:03.268Z,17.00
2022-12-19T19:27:03.762Z,15.93
2022-12-19T19:32:03.390Z,16.87
2022-12-19T19:37:05.083Z,17.00
2022-12-19T19:42:06.913Z,17.80
2022-12-19T19:47:10.499Z,18.17
2022-12-19T19:52:10.447Z,18.43
2022-12-19T19:57:11.693Z,18.20
2022-12-19T20:02:11.472Z,16.10
2022-12-19T20:07:10.709Z,16.77
2022-12-19T20:12:11.235Z,17.53
2022-12-19T20:17:11.917Z,16.37
2022-12-19T20:22:11.151Z,16.90
2022-12-19T20:27:11.775Z,18.13
2022-12-19T20:32:10.696Z,18.00
2022-12-19T20:37:10.105Z,19.43
2022-12-19T20:42:09.643Z,16.77
2022-12-19T20:47:09.975Z,17.87
2022-12-19T20:52:09.077Z,19.80
2022-12-19T20:57:07.815Z,21.10
2022-12-19T21:02:07.290Z,18.67
2022-12-19T21:07:08.305Z,19.73
2022-12-19T21:12:07.522Z,21.87
2022-12-19T21:17:06.538Z,20.23
2022-12-19T21:22:05.405Z,18.17
2022-12-19T21:27:06.072Z,20.10
2022-12-19T21:32:04.965Z,18.87
2022-12-19T21:37:03.811Z,19.00
2022-12-19T21:42:09.335Z,20.47
2022-12-19T21:47:10.995Z,20.07
2022-12-19T21:52:10.232Z,21.23
2022-12-19T21:57:09.256Z,18.97
2022-12-19T22:02:11.789Z,18.53
2022-12-19T22:07:11.436Z,18.33
2022-12-19T22:12:10.818Z,18.33
2022-12-19T22:17:11.014Z,19.10
2022-12-19T22:22:09.832Z,19.07
2022-12-19T22:27:08.676Z,19.37
2022-12-19T22:32:07.724Z,20.90
2022-12-19T22:37:08.090Z,19.30
2022-12-19T22:42:06.886Z,18.93
2022-12-19T22:47:05.739Z,20.70
2022-12-19T22:52:04.849Z,22.47
2022-12-19T22:57:05.181Z,20.73
2022-12-19T23:02:04.300Z,21.67
2022-12-19T23:07:03.701Z,19.87
2022-12-19T23:12:02.620Z,19.67
2022-12-19T23:17:02.831Z,20.00
2022-12-19T23:22:02.033Z,19.03
2022-12-19T23:27:01.049Z,18.00
2022-12-19T23:32:00.060Z,19.03
2022-12-19T23:37:10.586Z,19.43
2022-12-19T23:42:10.215Z,18.07
2022-12-19T23:47:09.517Z,20.07
2022-12-19T23:52:09.916Z,19.63
2022-12-19T23:57:09.108Z,18.87
